createdAt,value
2018-07-08T00:00:51.028Z,101504.93
2018-07-08T00:03:20.180Z,101512.19
2018-07-08T00:05:48.974Z,101520.31
2018-07-08T00:08:18.950Z,101515.91
2018-07-08T00:10:53.942Z,101520.80
2018-07-08T00:13:23.423Z,101516.52
2018-07-08T00:15:52.554Z,101519.23
2018-07-08T00:18:22.839Z,101518.40
2018-07-08T00:20:53.326Z,101518.03
2018-07-08T00:23:23.303Z,101523.81
2018-07-08T00:25:52.401Z,101522.09
2018-07-08T00:28:21.770Z,101530.20
2018-07-08T00:30:50.735Z,101518.89
2018-07-08T00:33:19.750Z,101521.72
2018-07-08T00:35:48.802Z,101521.72
2018-07-08T00:38:18.005Z,101517.16
2018-07-08T00:40:47.196Z,101514.95
2018-07-08T00:43:16.385Z,101511.91
2018-07-08T00:45:45.461Z,101514.09
2018-07-08T00:48:14.599Z,101515.44
2018-07-08T00:50:43.506Z,101514.09
2018-07-08T00:53:12.531Z,101511.37
2018-07-08T00:55:41.689Z,101519.50
2018-07-08T00:58:10.645Z,101514.61
2018-07-08T01:00:39.520Z,101511.05
2018-07-08T01:03:09.340Z,101519.16
2018-07-08T01:05:38.269Z,101513.26
2018-07-08T01:08:07.163Z,101514.73
2018-07-08T01:10:36.283Z,101512.39
2018-07-08T01:13:05.237Z,101520.52
2018-07-08T01:15:34.134Z,101523.72
2018-07-08T01:18:03.201Z,101526.42
2018-07-08T01:20:32.317Z,101517.44
2018-07-08T01:23:01.340Z,101518.80
2018-07-08T01:25:41.289Z,101518.80
2018-07-08T01:28:11.139Z,101518.45
2018-07-08T01:30:40.233Z,101513.04
2018-07-08T01:33:09.355Z,101515.22
2018-07-08T01:35:38.558Z,101513.04
2018-07-08T01:38:07.516Z,101518.08
2018-07-08T01:40:36.759Z,101515.37
2018-07-08T01:43:05.882Z,101514.52
2018-07-08T01:45:35.058Z,101521.28
2018-07-08T01:48:03.960Z,101528.05
2018-07-08T01:50:32.873Z,101526.36
2018-07-08T01:53:01.976Z,101531.24
2018-07-08T01:55:30.925Z,101529.55
2018-07-08T01:58:00.066Z,101526.84
2018-07-08T02:00:29.032Z,101526.47
2018-07-08T02:02:58.162Z,101521.55
2018-07-08T02:05:27.456Z,101529.18
2018-07-08T02:07:57.036Z,101526.97
2018-07-08T02:10:26.252Z,101525.27
2018-07-08T02:12:55.491Z,101527.12
2018-07-08T02:15:24.639Z,101532.53
2018-07-08T02:17:53.698Z,101529.82
2018-07-08T02:20:22.903Z,101529.45
2018-07-08T02:22:51.910Z,101530.47
2018-07-08T02:25:21.147Z,101527.76
2018-07-08T02:27:50.282Z,101532.80
2018-07-08T02:30:19.348Z,101535.51
2018-07-08T02:32:48.464Z,101536.37
2018-07-08T02:35:17.561Z,101542.27
2018-07-08T02:37:46.733Z,101536.86
2018-07-08T02:40:15.803Z,101534.52
2018-07-08T02:42:44.874Z,101542.64
2018-07-08T02:45:14.115Z,101538.92
2018-07-08T02:47:43.210Z,101544.70
2018-07-08T02:50:12.122Z,101544.55
2018-07-08T02:52:41.671Z,101545.79
2018-07-08T02:55:10.783Z,101540.72
2018-07-08T02:57:39.709Z,101537.89
2018-07-08T03:00:08.852Z,101535.03
2018-07-08T03:02:37.690Z,101538.59
2018-07-08T03:05:06.856Z,101534.39
2018-07-08T03:07:35.784Z,101530.20
2018-07-08T03:10:04.774Z,101531.93
2018-07-08T03:12:33.981Z,101533.13
2018-07-08T03:15:02.966Z,101536.55
2018-07-08T03:17:32.128Z,101534.25
2018-07-08T03:20:01.310Z,101540.37
2018-07-08T03:22:30.240Z,101539.72
2018-07-08T03:24:59.258Z,101538.74
2018-07-08T03:27:28.179Z,101539.45
2018-07-08T03:29:57.133Z,101542.37
2018-07-08T03:32:26.040Z,101541.23
2018-07-08T03:34:55.195Z,101544.66
2018-07-08T03:37:24.230Z,101539.98
2018-07-08T03:39:53.172Z,101543.39
2018-07-08T03:42:22.166Z,101544.48
2018-07-08T03:44:51.462Z,101547.89
2018-07-08T03:47:20.362Z,101542.69
2018-07-08T03:49:49.289Z,101545.25
2018-07-08T03:52:18.400Z,101544.48
2018-07-08T03:54:47.547Z,101547.03
2018-07-08T03:57:16.498Z,101541.83
2018-07-08T03:59:45.485Z,101545.61
2018-07-08T04:02:14.638Z,101552.27
2018-07-08T04:04:43.667Z,101556.17
2018-07-08T04:07:12.525Z,101550.11
2018-07-08T04:09:41.585Z,101562.02
2018-07-08T04:12:10.612Z,101558.66
2018-07-08T04:14:39.635Z,101559.03
2018-07-08T04:17:08.714Z,101556.53
2018-07-08T04:19:37.832Z,101558.59
2018-07-08T04:22:06.706Z,101556.75
2018-07-08T04:24:35.952Z,101556.47
2018-07-08T04:27:05.195Z,101550.55
2018-07-08T04:29:34.116Z,101553.97
2018-07-08T04:32:03.213Z,101558.41
2018-07-08T04:34:32.369Z,101557.79
2018-07-08T04:37:01.371Z,101558.49
2018-07-08T04:39:31.357Z,101558.34
2018-07-08T04:42:00.830Z,101559.57
2018-07-08T04:44:30.134Z,101562.49
2018-07-08T04:46:59.439Z,101558.27
2018-07-08T04:49:28.240Z,101555.44
2018-07-08T04:51:57.389Z,101553.92
2018-07-08T04:54:26.284Z,101559.55
2018-07-08T04:56:55.153Z,101558.08
2018-07-08T04:59:24.203Z,101560.13
2018-07-08T05:01:53.193Z,101564.04
2018-07-08T05:04:22.295Z,101565.27
2018-07-08T05:06:51.200Z,101554.64
2018-07-08T05:09:20.246Z,101564.46
2018-07-08T05:11:49.584Z,101555.19
2018-07-08T05:14:18.584Z,101557.28
2018-07-08T05:16:47.517Z,101553.42
2018-07-08T05:19:16.362Z,101560.04
2018-07-08T05:21:45.413Z,101556.55
2018-07-08T05:24:14.637Z,101554.17
2018-07-08T05:26:43.608Z,101559.80
2018-07-08T05:29:12.662Z,101556.97
2018-07-08T05:31:41.763Z,101558.16
2018-07-08T05:34:10.901Z,101558.86
2018-07-08T05:36:40.205Z,101561.28
2018-07-08T05:39:09.040Z,101562.36
2018-07-08T05:41:37.930Z,101567.66
2018-07-08T05:44:06.882Z,101566.14
2018-07-08T05:46:35.969Z,101562.27
2018-07-08T05:49:05.012Z,101561.16
2018-07-08T05:51:33.855Z,101563.22
2018-07-08T05:54:02.848Z,101553.23
2018-07-08T05:56:31.924Z,101558.86
2018-07-08T05:59:00.646Z,101557.70
2018-07-08T06:01:29.489Z,101560.30
2018-07-08T06:03:58.513Z,101557.79
2018-07-08T06:06:27.323Z,101558.98
2018-07-08T06:08:56.346Z,101554.75
2018-07-08T06:11:25.294Z,101560.38
2018-07-08T06:13:54.825Z,101557.05
2018-07-08T06:16:23.865Z,101558.23
2018-07-08T06:18:53.046Z,101560.66
2018-07-08T06:21:21.957Z,101546.93
2018-07-08T06:23:51.172Z,101552.06
2018-07-08T06:26:20.390Z,101549.23
2018-07-08T06:28:49.538Z,101547.70
2018-07-08T06:31:18.351Z,101549.42
2018-07-08T06:33:47.575Z,101553.70
2018-07-08T06:36:16.419Z,101558.30
2018-07-08T06:38:45.511Z,101559.53
2018-07-08T06:41:14.574Z,101549.53
2018-07-08T06:43:43.645Z,101558.71
2018-07-08T06:46:12.690Z,101554.14
2018-07-08T06:48:41.617Z,101549.94
2018-07-08T06:51:10.626Z,101550.77
2018-07-08T06:53:39.776Z,101547.06
2018-07-08T06:56:08.960Z,101550.48
2018-07-08T06:58:37.918Z,101549.48
2018-07-08T07:01:06.858Z,101552.20
2018-07-08T07:03:35.976Z,101550.67
2018-07-08T07:06:05.058Z,101553.75
2018-07-08T07:08:34.356Z,101550.55
2018-07-08T07:11:03.533Z,101552.59
2018-07-08T07:13:32.684Z,101553.09
2018-07-08T07:16:01.879Z,101560.58
2018-07-08T07:18:31.477Z,101554.66
2018-07-08T07:21:00.836Z,101558.72
2018-07-08T07:23:29.590Z,101557.73
2018-07-08T07:25:58.540Z,101561.31
2018-07-08T07:28:27.601Z,101553.53
2018-07-08T07:30:56.751Z,101561.67
2018-07-08T07:33:26.131Z,101560.68
2018-07-08T07:35:55.240Z,101555.25
2018-07-08T07:38:24.181Z,101553.89
2018-07-08T07:40:53.233Z,101558.83
2018-07-08T07:43:22.405Z,101560.52
2018-07-08T07:45:51.515Z,101558.30
2018-07-08T07:48:20.574Z,101552.37
2018-07-08T07:50:49.605Z,101560.52
2018-07-08T07:53:18.618Z,101553.23
2018-07-08T07:55:47.609Z,101561.38
2018-07-08T07:58:16.627Z,101558.30
2018-07-08T08:00:45.802Z,101557.80
2018-07-08T08:03:14.874Z,101556.11
2018-07-08T08:05:43.885Z,101559.66
2018-07-08T08:08:12.894Z,101520.97
2018-07-08T08:10:42.132Z,101562.03
2018-07-08T08:13:11.379Z,101558.46
2018-07-08T08:15:40.452Z,101553.53
2018-07-08T08:18:09.626Z,101546.24
2018-07-08T08:20:38.821Z,101547.73
2018-07-08T08:23:07.867Z,101547.86
2018-07-08T08:25:36.778Z,101551.08
2018-07-08T08:28:05.945Z,101546.17
2018-07-08T08:30:34.965Z,101554.32
2018-07-08T08:33:04.264Z,101548.52
2018-07-08T08:35:33.516Z,101551.73
2018-07-08T08:38:02.784Z,101546.47
2018-07-08T08:40:31.934Z,101544.75
2018-07-08T08:43:00.955Z,101540.31
2018-07-08T08:45:30.621Z,101535.91
2018-07-08T08:47:59.732Z,101533.33
2018-07-08T08:50:28.916Z,101536.57
2018-07-08T08:52:58.000Z,101535.70
2018-07-08T08:55:27.009Z,101534.35
2018-07-08T08:57:56.098Z,101529.42
2018-07-08T09:00:25.240Z,101530.94
2018-07-08T09:02:54.284Z,101526.01
2018-07-08T09:05:23.229Z,101522.44
2018-07-08T09:07:52.284Z,101529.72
2018-07-08T09:10:21.337Z,101528.52
2018-07-08T09:12:50.548Z,101526.80
2018-07-08T09:15:19.723Z,101525.94
2018-07-08T09:17:49.078Z,101529.68
2018-07-08T09:20:18.200Z,101525.73
2018-07-08T09:22:47.401Z,101523.19
2018-07-08T09:25:16.469Z,101526.89
2018-07-08T09:27:45.386Z,101525.20
2018-07-08T09:30:14.654Z,101520.77
2018-07-08T09:32:43.658Z,101520.94
2018-07-08T09:35:12.595Z,101517.86
2018-07-08T09:37:41.807Z,101508.12
2018-07-08T09:40:10.909Z,101511.37
2018-07-08T09:42:40.293Z,101509.67
2018-07-08T09:45:09.254Z,101509.80
2018-07-08T09:47:38.384Z,101513.55
2018-07-08T09:50:07.498Z,101509.11
2018-07-08T09:52:36.615Z,101508.75
2018-07-08T09:55:06.600Z,101505.17
2018-07-08T09:57:35.849Z,101509.56
2018-07-08T10:00:05.500Z,101499.70
2018-07-08T10:02:35.898Z,101509.36
2018-07-08T10:05:06.149Z,101506.28
2018-07-08T10:07:35.313Z,101506.95
2018-07-08T10:10:04.727Z,101501.65
2018-07-08T10:12:33.684Z,101499.59
2018-07-08T10:15:02.819Z,101497.54
2018-07-08T10:17:31.939Z,101499.39
2018-07-08T10:20:00.955Z,101502.59
2018-07-08T10:22:30.121Z,101490.39
2018-07-08T10:24:59.003Z,101484.97
2018-07-08T10:27:40.736Z,101480.56
2018-07-08T10:30:09.926Z,101482.42
2018-07-08T10:32:39.253Z,101485.13
2018-07-08T10:35:16.937Z,101485.47
2018-07-08T10:37:46.133Z,101485.99
2018-07-08T10:40:15.384Z,101482.55
2018-07-08T10:42:44.334Z,101488.50
2018-07-08T10:45:13.469Z,101479.01
2018-07-08T10:47:43.230Z,101483.08
2018-07-08T10:50:12.612Z,101471.86
2018-07-08T10:52:41.885Z,101471.86
2018-07-08T10:55:10.725Z,101467.95
2018-07-08T10:57:39.873Z,101467.09
2018-07-08T11:00:08.860Z,101467.72
2018-07-08T11:15:38.120Z,101458.58
2018-07-08T11:18:07.396Z,101452.38
2018-07-08T11:20:36.283Z,101448.02
2018-07-08T11:23:05.092Z,101449.58
2018-07-08T11:25:33.986Z,101450.40
2018-07-08T11:28:03.146Z,101446.33
2018-07-08T11:30:31.992Z,101440.91
2018-07-08T11:33:01.449Z,101447.36
2018-07-08T11:35:30.749Z,101441.94
2018-07-08T11:37:59.935Z,101438.86
2018-07-08T11:40:29.098Z,101432.45
2018-07-08T11:42:58.996Z,101441.94
2018-07-08T11:45:27.957Z,101436.64
2018-07-08T11:47:56.977Z,101432.94
2018-07-08T11:50:25.828Z,101438.20
2018-07-08T11:52:54.957Z,101436.02
2018-07-08T11:55:24.122Z,101429.73
2018-07-08T11:57:53.146Z,101427.15
2018-07-08T12:00:22.092Z,101424.44
2018-07-08T12:02:51.048Z,101430.39
2018-07-08T12:05:19.913Z,101425.59
2018-07-08T12:07:48.827Z,101422.39
2018-07-08T12:10:17.722Z,101422.88
2018-07-08T12:12:46.593Z,101416.10
2018-07-08T12:15:15.972Z,101419.34
2018-07-08T12:17:44.865Z,101419.34
2018-07-08T12:20:13.896Z,101419.47
2018-07-08T12:22:42.783Z,101413.19
2018-07-08T12:25:11.735Z,101403.36
2018-07-08T12:27:40.627Z,101411.00
2018-07-08T12:30:09.593Z,101406.57
2018-07-08T12:32:39.575Z,101399.80
2018-07-08T12:35:08.834Z,101402.64
2018-07-08T12:37:37.749Z,101410.27
2018-07-08T12:40:07.026Z,101409.58
2018-07-08T12:42:35.965Z,101403.79
2018-07-08T12:45:05.192Z,101398.89
2018-07-08T12:47:34.634Z,101399.39
2018-07-08T12:50:03.874Z,101398.89
2018-07-08T12:52:32.871Z,101396.18
2018-07-08T12:55:02.074Z,101396.18
2018-07-08T12:57:31.220Z,101388.38
2018-07-08T13:00:00.389Z,101382.96
2018-07-08T13:02:29.708Z,101384.81
2018-07-08T13:04:58.920Z,101385.17
2018-07-08T13:07:27.933Z,101381.11
2018-07-08T13:09:56.748Z,101382.47
2018-07-08T13:12:25.943Z,101388.75
2018-07-08T13:14:55.203Z,101380.13
2018-07-08T13:17:24.188Z,101383.33
2018-07-08T13:19:53.215Z,101385.55
2018-07-08T13:22:22.101Z,101381.47
2018-07-08T13:24:51.260Z,101370.62
2018-07-08T13:27:20.319Z,101370.62
2018-07-08T13:29:49.400Z,101372.81
2018-07-08T13:32:18.512Z,101373.67
2018-07-08T13:34:47.510Z,101371.45
2018-07-08T13:37:16.844Z,101368.25
2018-07-08T13:39:45.807Z,101363.33
2018-07-08T13:42:14.928Z,101370.10
2018-07-08T13:57:43.928Z,101359.34
2018-07-08T14:00:13.129Z,101358.47
2018-07-08T14:02:42.220Z,101347.84
2018-07-08T14:05:11.500Z,101363.80
2018-07-08T14:07:40.697Z,101356.91
2018-07-08T14:10:10.048Z,101348.45
2018-07-08T14:12:39.227Z,101350.87
2018-07-08T14:15:08.278Z,101352.92
2018-07-08T14:17:37.593Z,101350.08
2018-07-08T14:20:06.923Z,101349.06
2018-07-08T14:22:36.101Z,101341.29
2018-07-08T14:25:05.095Z,101340.30
2018-07-08T14:27:34.242Z,101345.56
2018-07-08T14:30:03.668Z,101343.21
2018-07-08T14:32:32.992Z,101338.28
2018-07-08T14:35:02.074Z,101332.37
2018-07-08T14:37:31.175Z,101332.37
2018-07-08T14:40:00.182Z,101329.16
2018-07-08T14:42:29.266Z,101332.70
2018-07-08T14:44:58.307Z,101338.48
2018-07-08T14:47:27.606Z,101330.85
2018-07-08T14:49:56.713Z,101333.77
2018-07-08T14:52:25.912Z,101329.20
2018-07-08T14:54:54.763Z,101323.28
2018-07-08T14:57:23.738Z,101321.93
2018-07-08T14:59:52.659Z,101314.66
2018-07-08T15:02:21.519Z,101307.72
2018-07-08T15:04:50.787Z,101311.78
2018-07-08T15:07:19.958Z,101308.21
2018-07-08T15:09:49.634Z,101306.72
2018-07-08T15:12:18.493Z,101306.72
2018-07-08T15:14:47.615Z,101313.34
2018-07-08T15:17:16.517Z,101310.63
2018-07-08T15:19:45.503Z,101311.48
2018-07-08T15:22:14.761Z,101314.89
2018-07-08T15:24:43.920Z,101309.47
2018-07-08T15:27:13.156Z,101313.54
2018-07-08T15:29:42.208Z,101315.75
2018-07-08T15:32:11.457Z,101312.55
2018-07-08T15:34:40.946Z,101299.48
2018-07-08T15:37:10.807Z,101299.85
2018-07-08T15:39:40.126Z,101301.20
2018-07-08T15:42:09.366Z,101297.14
2018-07-08T15:44:38.752Z,101295.78
2018-07-08T15:47:08.301Z,101294.43
2018-07-08T15:49:37.418Z,101291.72
2018-07-08T15:52:06.637Z,101290.86
2018-07-08T15:54:35.762Z,101294.06
2018-07-08T15:57:05.030Z,101293.07
2018-07-08T15:59:34.229Z,101291.72
2018-07-08T16:02:03.347Z,101293.07
2018-07-08T16:04:32.749Z,101281.86
2018-07-08T16:07:02.087Z,101282.23
2018-07-08T16:09:31.384Z,101281.86
2018-07-08T16:12:01.865Z,101276.81
2018-07-08T16:14:31.199Z,101276.81
2018-07-08T16:17:00.405Z,101273.56
2018-07-08T16:19:29.761Z,101272.73
2018-07-08T16:21:58.994Z,101265.96
2018-07-08T16:24:27.859Z,101266.45
2018-07-08T16:26:57.253Z,101260.01
2018-07-08T16:29:26.572Z,101258.82
2018-07-08T16:31:55.902Z,101259.69
2018-07-08T16:34:25.097Z,101262.39
2018-07-08T16:36:54.764Z,101263.25
2018-07-08T16:39:24.180Z,101256.11
2018-07-08T16:41:53.340Z,101254.26
2018-07-08T16:44:22.704Z,101246.63
2018-07-08T16:46:51.763Z,101250.69
2018-07-08T16:49:21.022Z,101252.54
2018-07-08T16:51:50.629Z,101247.98
2018-07-08T16:54:20.209Z,101239.48
2018-07-08T16:56:49.494Z,101235.91
2018-07-08T16:59:18.778Z,101242.20
2018-07-08T17:01:48.156Z,101232.38
2018-07-08T17:04:17.477Z,101233.20
2018-07-08T17:06:46.605Z,101238.13
2018-07-08T17:09:15.794Z,101232.51
2018-07-08T17:11:45.205Z,101234.23
2018-07-08T17:14:14.427Z,101234.36
2018-07-08T17:16:43.611Z,101227.58
2018-07-08T17:19:12.915Z,101228.94
2018-07-08T17:21:42.347Z,101226.39
2018-07-08T17:24:11.798Z,101225.04
2018-07-08T17:26:41.207Z,101226.39
2018-07-08T17:29:10.488Z,101220.11
2018-07-08T17:31:39.729Z,101224.18
2018-07-08T17:34:08.999Z,101220.11
2018-07-08T17:36:39.338Z,101214.30
2018-07-08T17:39:08.974Z,101224.18
2018-07-08T17:41:38.548Z,101221.97
2018-07-08T17:44:08.418Z,101211.66
2018-07-08T17:46:37.564Z,101212.48
2018-07-08T17:49:07.239Z,101216.55
2018-07-08T17:51:36.803Z,101211.29
2018-07-08T17:54:07.221Z,101212.15
2018-07-08T17:56:36.871Z,101208.58
2018-07-08T17:59:06.260Z,101211.66
2018-07-08T18:01:35.767Z,101208.58
2018-07-08T18:04:05.558Z,101208.08
2018-07-08T18:06:35.011Z,101201.44
2018-07-08T18:09:05.535Z,101205.01
2018-07-08T18:11:35.428Z,101204.52
2018-07-08T18:14:06.215Z,101211.78
2018-07-08T18:16:36.131Z,101206.73
2018-07-08T18:19:06.040Z,101205.01
2018-07-08T18:21:35.334Z,101203.16
2018-07-08T18:24:04.402Z,101202.99
2018-07-08T18:26:33.650Z,101207.42
2018-07-08T18:29:02.963Z,101204.71
2018-07-08T18:31:32.006Z,101205.56
2018-07-08T18:34:00.847Z,101210.33
2018-07-08T18:36:30.367Z,101212.05
2018-07-08T18:38:59.566Z,101210.16
2018-07-08T18:41:28.523Z,101206.63
2018-07-08T18:43:58.037Z,101206.95
2018-07-08T18:46:27.407Z,101211.38
2018-07-08T18:48:56.726Z,101209.53
2018-07-08T18:51:25.946Z,101206.31
2018-07-08T18:53:55.323Z,101210.72
2018-07-08T18:56:24.851Z,101216.50
2018-07-08T18:58:53.938Z,101219.21
2018-07-08T19:01:22.957Z,101221.75
2018-07-08T19:03:52.958Z,101216.00
2018-07-08T19:06:22.365Z,101216.83
2018-07-08T19:08:51.751Z,101176.63
2018-07-08T19:11:21.167Z,101213.63
2018-07-08T19:13:50.301Z,101211.41
2018-07-08T19:16:19.189Z,101214.12
2018-07-08T19:18:48.161Z,101214.12
2018-07-08T19:21:17.069Z,101218.19
2018-07-08T19:23:46.259Z,101222.25
2018-07-08T19:26:15.205Z,101220.07
2018-07-08T19:28:44.277Z,101220.40
2018-07-08T19:31:13.588Z,101227.17
2018-07-08T19:33:42.936Z,101217.36
2018-07-08T19:36:11.914Z,101227.34
2018-07-08T19:38:41.328Z,101230.55
2018-07-08T19:41:10.431Z,101227.67
2018-07-08T19:43:39.677Z,101230.05
2018-07-08T19:46:08.811Z,101229.20
2018-07-08T19:48:37.851Z,101232.91
2018-07-08T19:51:07.019Z,101232.41
2018-07-08T19:53:36.238Z,101230.72
2018-07-08T19:56:05.329Z,101233.06
2018-07-08T19:58:34.382Z,101239.34
2018-07-08T20:01:03.551Z,101237.13
2018-07-08T20:03:32.765Z,101239.84
2018-07-08T20:06:02.024Z,101240.84
2018-07-08T20:08:31.448Z,101230.16
2018-07-08T20:11:00.691Z,101240.84
2018-07-08T20:13:29.870Z,101241.50
2018-07-08T20:15:58.953Z,101236.44
2018-07-08T20:18:27.904Z,101241.14
2018-07-08T20:20:56.870Z,101236.08
2018-07-08T20:23:25.918Z,101237.44
2018-07-08T20:25:55.094Z,101236.24
2018-07-08T20:28:24.419Z,101228.94
2018-07-08T20:30:53.758Z,101234.03
2018-07-08T20:33:23.019Z,101233.17
2018-07-08T20:35:52.290Z,101230.09
2018-07-08T20:38:21.573Z,101230.63
2018-07-08T20:40:50.829Z,101227.91
2018-07-08T20:43:20.055Z,101228.91
2018-07-08T20:45:49.094Z,101229.91
2018-07-08T20:48:18.195Z,101214.96
2018-07-08T20:50:47.291Z,101222.30
2018-07-08T20:53:16.636Z,101221.94
2018-07-08T20:55:45.665Z,101219.72
2018-07-08T20:58:15.136Z,101219.72
2018-07-08T21:00:44.022Z,101215.16
2018-07-08T21:03:12.868Z,101211.76
2018-07-08T21:05:42.096Z,101204.13
2018-07-08T21:08:11.061Z,101213.61
2018-07-08T21:10:40.274Z,101209.67
2018-07-08T21:13:09.210Z,101209.18
2018-07-08T21:15:38.402Z,101210.20
2018-07-08T21:18:07.556Z,101206.14
2018-07-08T21:20:36.495Z,101203.92
2018-07-08T21:23:05.913Z,101202.20
2018-07-08T21:25:34.921Z,101197.81
2018-07-08T21:28:04.122Z,101202.70
2018-07-08T21:30:33.222Z,101205.58
2018-07-08T21:33:02.978Z,101204.72
2018-07-08T21:35:32.167Z,101203.03
2018-07-08T21:38:02.110Z,101197.25
2018-07-08T21:40:31.189Z,101196.39
2018-07-08T21:43:00.152Z,101198.91
2018-07-08T21:45:29.062Z,101193.98
2018-07-08T21:47:57.937Z,101194.52
2018-07-08T21:50:27.101Z,101192.80
2018-07-08T21:52:56.220Z,101188.37
2018-07-08T21:55:25.276Z,101192.43
2018-07-08T21:57:54.426Z,101197.52
2018-07-08T22:00:30.789Z,101191.73
2018-07-08T22:03:00.356Z,101188.66
2018-07-08T22:05:30.612Z,101195.44
2018-07-08T22:08:04.626Z,101185.13
2018-07-08T22:10:34.081Z,101186.98
2018-07-08T22:13:04.062Z,101184.41
2018-07-08T22:15:33.172Z,101183.58
2018-07-08T22:18:02.236Z,101179.15
2018-07-08T22:20:31.186Z,101182.22
2018-07-08T22:23:00.138Z,101174.23
2018-07-08T22:25:29.197Z,101178.30
2018-07-08T22:27:58.250Z,101179.31
2018-07-08T22:30:27.433Z,101175.75
2018-07-08T22:32:56.588Z,101169.47
2018-07-08T22:35:25.724Z,101165.54
2018-07-08T22:37:54.885Z,101171.78
2018-07-08T22:40:23.958Z,101165.54
2018-07-08T22:42:53.025Z,101159.59
2018-07-08T22:45:22.112Z,101167.72
2018-07-08T22:47:51.398Z,101169.61
2018-07-08T22:50:20.496Z,101167.22
2018-07-08T22:52:49.742Z,101159.09
2018-07-08T22:55:18.855Z,101156.55
2018-07-08T22:57:47.977Z,101155.69
2018-07-08T23:00:28.252Z,101153.48
2018-07-08T23:03:08.621Z,101143.50
2018-07-08T23:05:37.865Z,101140.43
2018-07-08T23:08:06.946Z,101137.39
2018-07-08T23:10:36.181Z,101139.61
2018-07-08T23:13:05.537Z,101139.61
2018-07-08T23:15:34.712Z,101137.39
2018-07-08T23:18:04.037Z,101140.96
2018-07-08T23:20:33.167Z,101136.36
2018-07-08T23:23:02.277Z,101133.66
2018-07-08T23:25:31.392Z,101130.12
2018-07-08T23:28:00.630Z,101123.84
2018-07-08T23:30:29.790Z,101123.34
2018-07-08T23:32:58.899Z,101117.57
2018-07-08T23:35:27.894Z,101121.14
2018-07-08T23:37:57.030Z,101116.22
2018-07-08T23:40:26.287Z,101117.57
2018-07-08T23:42:55.708Z,101114.36
2018-07-08T23:45:24.735Z,101116.22
2018-07-08T23:47:53.773Z,101118.92
2018-07-08T23:50:22.726Z,101115.36
2018-07-08T23:52:51.844Z,101118.92
